sensor_id;sensor_type;location;lat;lon;timestamp;pressure;altitude;pressure_sealevel;temperature;humidity
69247;BME280;56358;56.328;43.992;2023-02-23T00:00:56;99783.38;;;-16.47;71.07
69247;BME280;56358;56.328;43.992;2023-02-23T00:02:59;99801.44;;;-16.41;71.01
69247;BME280;56358;56.328;43.992;2023-02-23T00:05:01;99800.53;;;-16.44;71.06
69247;BME280;56358;56.328;43.992;2023-02-23T00:07:04;99816.84;;;-16.41;70.85
69247;BME280;56358;56.328;43.992;2023-02-23T00:09:06;99804.78;;;-16.45;70.80
69247;BME280;56358;56.328;43.992;2023-02-23T00:11:14;99801.38;;;-16.45;70.53
69247;BME280;56358;56.328;43.992;2023-02-23T00:13:15;99807.09;;;-16.57;70.61
69247;BME280;56358;56.328;43.992;2023-02-23T00:15:16;99812.28;;;-16.54;70.84
69247;BME280;56358;56.328;43.992;2023-02-23T00:17:17;99803.72;;;-16.56;70.86
69247;BME280;56358;56.328;43.992;2023-02-23T00:19:18;99811.28;;;-16.62;70.75
69247;BME280;56358;56.328;43.992;2023-02-23T00:21:25;99795.69;;;-16.72;70.99
69247;BME280;56358;56.328;43.992;2023-02-23T00:23:25;99798.22;;;-16.73;71.09
69247;BME280;56358;56.328;43.992;2023-02-23T00:25:28;99800.81;;;-16.72;71.16
69247;BME280;56358;56.328;43.992;2023-02-23T00:27:30;99724.72;;;-17.15;71.61
69247;BME280;56358;56.328;43.992;2023-02-23T00:29:31;99799.16;;;-16.70;71.51
69247;BME280;56358;56.328;43.992;2023-02-23T00:31:39;99794.84;;;-16.71;71.54
69247;BME280;56358;56.328;43.992;2023-02-23T00:33:40;99803.69;;;-16.58;71.37
69247;BME280;56358;56.328;43.992;2023-02-23T00:35:41;99769.13;;;-16.75;71.53
69247;BME280;56358;56.328;43.992;2023-02-23T00:37:46;99758.78;;;-16.78;71.69
69247;BME280;56358;56.328;43.992;2023-02-23T00:39:48;99812.47;;;-16.45;71.81
69247;BME280;56358;56.328;43.992;2023-02-23T00:41:49;99810.72;;;-16.47;71.78
69247;BME280;56358;56.328;43.992;2023-02-23T00:43:51;99819.47;;;-16.39;71.60
69247;BME280;56358;56.328;43.992;2023-02-23T00:45:54;99783.03;;;-16.64;71.61
69247;BME280;56358;56.328;43.992;2023-02-23T00:47:55;99828.91;;;-16.37;71.63
69247;BME280;56358;56.328;43.992;2023-02-23T00:49:55;99780.47;;;-16.62;71.64
69247;BME280;56358;56.328;43.992;2023-02-23T00:51:57;99833.31;;;-16.31;71.53
69247;BME280;56358;56.328;43.992;2023-02-23T00:53:59;99826.38;;;-16.35;71.72
69247;BME280;56358;56.328;43.992;2023-02-23T00:56:00;99790.94;;;-16.53;71.71
69247;BME280;56358;56.328;43.992;2023-02-23T00:58:03;99825.66;;;-16.28;71.65
69247;BME280;56358;56.328;43.992;2023-02-23T01:00:06;99831.66;;;-16.27;71.42
69247;BME280;56358;56.328;43.992;2023-02-23T01:02:18;99827.44;;;-16.25;71.55
69247;BME280;56358;56.328;43.992;2023-02-23T01:04:18;99842.81;;;-16.25;71.21
69247;BME280;56358;56.328;43.992;2023-02-23T01:06:19;99845.44;;;-16.22;71.53
69247;BME280;56358;56.328;43.992;2023-02-23T01:08:20;99855.75;;;-16.21;71.45
69247;BME280;56358;56.328;43.992;2023-02-23T01:10:24;99784.06;;;-16.54;71.08
69247;BME280;56358;56.328;43.992;2023-02-23T01:12:24;99843.78;;;-16.20;71.11
69247;BME280;56358;56.328;43.992;2023-02-23T01:14:25;99836.69;;;-16.33;70.89
69247;BME280;56358;56.328;43.992;2023-02-23T01:16:28;99839.25;;;-16.33;71.02
69247;BME280;56358;56.328;43.992;2023-02-23T01:18:29;99843.56;;;-16.32;70.94
69247;BME280;56358;56.328;43.992;2023-02-23T01:20:33;99853.84;;;-16.31;70.92
69247;BME280;56358;56.328;43.992;2023-02-23T01:22:35;99834.91;;;-16.36;71.07
69247;BME280;56358;56.328;43.992;2023-02-23T01:24:36;99838.47;;;-16.29;71.01
69247;BME280;56358;56.328;43.992;2023-02-23T01:26:40;99860.88;;;-16.21;70.97
69247;BME280;56358;56.328;43.992;2023-02-23T01:28:41;99838.41;;;-16.32;70.62
69247;BME280;56358;56.328;43.992;2023-02-23T01:30:42;99865.13;;;-16.23;70.88
69247;BME280;56358;56.328;43.992;2023-02-23T01:32:44;99839.22;;;-16.35;70.52
69247;BME280;56358;56.328;43.992;2023-02-23T01:34:44;99860.78;;;-16.27;70.45
69247;BME280;56358;56.328;43.992;2023-02-23T01:36:45;99864.09;;;-16.32;70.64
69247;BME280;56358;56.328;43.992;2023-02-23T01:38:46;99854.75;;;-16.27;70.61
69247;BME280;56358;56.328;43.992;2023-02-23T01:40:48;99841.69;;;-16.38;70.81
69247;BME280;56358;56.328;43.992;2023-02-23T01:42:49;99862.38;;;-16.32;70.71
69247;BME280;56358;56.328;43.992;2023-02-23T01:46:53;99853.75;;;-16.34;70.49
69247;BME280;56358;56.328;43.992;2023-02-23T01:48:54;99857.25;;;-16.32;70.78
69247;BME280;56358;56.328;43.992;2023-02-23T01:51:06;99872.63;;;-16.32;70.51
69247;BME280;56358;56.328;43.992;2023-02-23T01:53:09;99861.47;;;-16.34;70.42
69247;BME280;56358;56.328;43.992;2023-02-23T01:55:11;99876.16;;;-16.28;70.44
69247;BME280;56358;56.328;43.992;2023-02-23T01:57:13;99831.06;;;-16.57;70.45
69247;BME280;56358;56.328;43.992;2023-02-23T01:59:14;99872.53;;;-16.37;70.67
69247;BME280;56358;56.328;43.992;2023-02-23T02:01:17;99876.81;;;-16.37;70.87
69247;BME280;56358;56.328;43.992;2023-02-23T02:03:25;99881.16;;;-16.33;70.88
69247;BME280;56358;56.328;43.992;2023-02-23T02:05:27;99883.72;;;-16.33;71.05
69247;BME280;56358;56.328;43.992;2023-02-23T02:07:29;99835.44;;;-16.53;71.07
69247;BME280;56358;56.328;43.992;2023-02-23T02:09:31;99873.47;;;-16.33;71.34
69247;BME280;56358;56.328;43.992;2023-02-23T02:11:37;99881.22;;;-16.30;70.91
69247;BME280;56358;56.328;43.992;2023-02-23T02:13:38;99889.00;;;-16.27;71.19
69247;BME280;56358;56.328;43.992;2023-02-23T02:15:49;99880.53;;;-16.23;71.07
69247;BME280;56358;56.328;43.992;2023-02-23T02:41:37;99887.22;;;-15.88;70.51
69247;BME280;56358;56.328;43.992;2023-02-23T02:44:09;99883.03;;;-15.83;70.59
69247;BME280;56358;56.328;43.992;2023-02-23T02:46:19;99881.34;;;-15.81;70.63
69247;BME280;56358;56.328;43.992;2023-02-23T02:50:51;99887.44;;;-15.73;70.60
69247;BME280;56358;56.328;43.992;2023-02-23T02:53:09;99888.38;;;-15.71;70.65
69247;BME280;56358;56.328;43.992;2023-02-23T02:55:14;99896.22;;;-15.63;70.47
69247;BME280;56358;56.328;43.992;2023-02-23T02:57:17;99886.00;;;-15.60;70.20
69247;BME280;56358;56.328;43.992;2023-02-23T02:59:19;99889.41;;;-15.59;70.44
69247;BME280;56358;56.328;43.992;2023-02-23T03:01:38;99892.97;;;-15.51;70.13
69247;BME280;56358;56.328;43.992;2023-02-23T03:03:58;99891.31;;;-15.49;70.09
69247;BME280;56358;56.328;43.992;2023-02-23T03:06:25;99845.53;;;-15.72;69.93
69247;BME280;56358;56.328;43.992;2023-02-23T03:12:14;99831.88;;;-15.68;70.17
69247;BME280;56358;56.328;43.992;2023-02-23T03:14:44;99895.16;;;-15.25;69.87
69247;BME280;56358;56.328;43.992;2023-02-23T03:19:56;99906.97;;;-15.35;69.64
69247;BME280;56358;56.328;43.992;2023-02-23T03:22:29;99868.94;;;-15.56;69.71
69247;BME280;56358;56.328;43.992;2023-02-23T03:25:03;99911.25;;;-15.36;69.59
69247;BME280;56358;56.328;43.992;2023-02-23T03:27:42;99897.50;;;-15.38;69.69
69247;BME280;56358;56.328;43.992;2023-02-23T03:30:36;99900.25;;;-15.28;69.98
69247;BME280;56358;56.328;43.992;2023-02-23T03:33:01;99883.03;;;-15.32;70.31
69247;BME280;56358;56.328;43.992;2023-02-23T03:35:32;99909.72;;;-15.24;70.35
69247;BME280;56358;56.328;43.992;2023-02-23T03:38:10;99893.44;;;-15.26;69.98
69247;BME280;56358;56.328;43.992;2023-02-23T03:40:37;99888.25;;;-15.29;70.00
69247;BME280;56358;56.328;43.992;2023-02-23T03:42:58;99853.78;;;-15.39;70.05
69247;BME280;56358;56.328;43.992;2023-02-23T03:45:22;99909.06;;;-15.12;70.06
69247;BME280;56358;56.328;43.992;2023-02-23T03:47:42;99905.72;;;-15.08;70.29
69247;BME280;56358;56.328;43.992;2023-02-23T03:50:06;99897.16;;;-15.09;70.27
69247;BME280;56358;56.328;43.992;2023-02-23T03:52:38;99900.66;;;-15.05;70.10
69247;BME280;56358;56.328;43.992;2023-02-23T03:55:02;99901.56;;;-15.00;69.49
69247;BME280;56358;56.328;43.992;2023-02-23T03:57:24;99904.06;;;-15.05;69.48
69247;BME280;56358;56.328;43.992;2023-02-23T03:59:57;99910.13;;;-15.03;69.80
69247;BME280;56358;56.328;43.992;2023-02-23T04:02:19;99911.84;;;-15.00;69.75
69247;BME280;56358;56.328;43.992;2023-02-23T04:04:41;99902.41;;;-15.01;70.12
69247;BME280;56358;56.328;43.992;2023-02-23T04:07:03;99918.03;;;-14.90;69.76
69247;BME280;56358;56.328;43.992;2023-02-23T04:09:24;99910.31;;;-14.90;69.84
69247;BME280;56358;56.328;43.992;2023-02-23T04:14:21;99923.09;;;-14.95;69.59
69247;BME280;56358;56.328;43.992;2023-02-23T04:16:23;99922.19;;;-14.98;69.83
69247;BME280;56358;56.328;43.992;2023-02-23T04:18:26;99922.19;;;-14.98;69.94
69247;BME280;56358;56.328;43.992;2023-02-23T04:20:28;99921.31;;;-14.97;69.71
69247;BME280;56358;56.328;43.992;2023-02-23T04:22:28;99920.47;;;-14.98;69.62
69247;BME280;56358;56.328;43.992;2023-02-23T04:24:30;99915.19;;;-15.06;69.84
69247;BME280;56358;56.328;43.992;2023-02-23T04:26:30;99921.16;;;-15.07;69.90
69247;BME280;56358;56.328;43.992;2023-02-23T04:28:31;99914.50;;;-14.97;69.65
69247;BME280;56358;56.328;43.992;2023-02-23T04:30:32;99871.22;;;-15.23;69.54
69247;BME280;56358;56.328;43.992;2023-02-23T04:32:32;99917.00;;;-15.00;69.14
69247;BME280;56358;56.328;43.992;2023-02-23T04:34:33;99933.50;;;-14.89;69.27
69247;BME280;56358;56.328;43.992;2023-02-23T04:36:34;99914.50;;;-14.95;69.41
69247;BME280;56358;56.328;43.992;2023-02-23T04:38:35;99935.31;;;-14.81;69.37
69247;BME280;56358;56.328;43.992;2023-02-23T04:40:36;99921.63;;;-14.79;69.11
69247;BME280;56358;56.328;43.992;2023-02-23T04:42:38;99938.84;;;-14.75;68.81
69247;BME280;56358;56.328;43.992;2023-02-23T04:44:39;99941.34;;;-14.81;68.74
69247;BME280;56358;56.328;43.992;2023-02-23T04:46:39;99901.63;;;-14.97;68.86
69247;BME280;56358;56.328;43.992;2023-02-23T04:48:40;99942.34;;;-14.71;68.65
69247;BME280;56358;56.328;43.992;2023-02-23T04:50:41;99886.03;;;-15.08;68.52
69247;BME280;56358;56.328;43.992;2023-02-23T04:52:41;99882.47;;;-15.16;68.38
69247;BME280;56358;56.328;43.992;2023-02-23T04:54:42;99936.22;;;-14.79;68.23
69247;BME280;56358;56.328;43.992;2023-02-23T04:56:43;99935.31;;;-14.80;68.42
69247;BME280;56358;56.328;43.992;2023-02-23T04:58:43;99956.84;;;-14.75;68.46
69247;BME280;56358;56.328;43.992;2023-02-23T05:00:44;99953.38;;;-14.78;68.26
69247;BME280;56358;56.328;43.992;2023-02-23T05:02:45;99904.97;;;-15.03;67.96
69247;BME280;56358;56.328;43.992;2023-02-23T05:04:45;99954.19;;;-14.81;67.53
69247;BME280;56358;56.328;43.992;2023-02-23T05:06:46;99958.41;;;-14.86;67.47
69247;BME280;56358;56.328;43.992;2023-02-23T05:08:47;99930.59;;;-15.07;67.89
69247;BME280;56358;56.328;43.992;2023-02-23T05:10:47;99942.69;;;-15.02;67.43
69247;BME280;56358;56.328;43.992;2023-02-23T05:12:48;99894.94;;;-15.38;67.18
69247;BME280;56358;56.328;43.992;2023-02-23T05:14:49;99925.06;;;-15.30;67.37
69247;BME280;56358;56.328;43.992;2023-02-23T05:16:50;99966.72;;;-15.01;67.56
69247;BME280;56358;56.328;43.992;2023-02-23T05:18:51;99948.66;;;-15.04;67.37
69247;BME280;56358;56.328;43.992;2023-02-23T05:20:53;99958.06;;;-15.06;67.33
69247;BME280;56358;56.328;43.992;2023-02-23T05:22:53;99956.19;;;-15.13;67.25
69247;BME280;56358;56.328;43.992;2023-02-23T05:24:54;99936.50;;;-15.14;67.34
69247;BME280;56358;56.328;43.992;2023-02-23T05:26:55;99962.31;;;-15.08;67.27
69247;BME280;56358;56.328;43.992;2023-02-23T05:28:55;99925.25;;;-15.21;67.10
69247;BME280;56358;56.328;43.992;2023-02-23T05:30:56;99959.88;;;-14.99;67.20
69247;BME280;56358;56.328;43.992;2023-02-23T05:32:57;99974.59;;;-14.92;66.72
69247;BME280;56358;56.328;43.992;2023-02-23T05:34:57;99924.44;;;-15.17;66.24
69247;BME280;56358;56.328;43.992;2023-02-23T05:36:58;99965.09;;;-14.96;66.46
69247;BME280;56358;56.328;43.992;2023-02-23T05:38:59;99975.47;;;-14.90;66.59
69247;BME280;56358;56.328;43.992;2023-02-23T05:41:06;99977.28;;;-14.84;66.48
69247;BME280;56358;56.328;43.992;2023-02-23T05:43:07;99955.88;;;-14.83;65.60
69247;BME280;56358;56.328;43.992;2023-02-23T05:45:08;99978.25;;;-14.77;66.01
69247;BME280;56358;56.328;43.992;2023-02-23T05:47:08;99968.91;;;-14.72;66.37
69247;BME280;56358;56.328;43.992;2023-02-23T05:49:10;99978.47;;;-14.62;66.50
69247;BME280;56358;56.328;43.992;2023-02-23T05:51:12;99982.78;;;-14.61;66.27
69247;BME280;56358;56.328;43.992;2023-02-23T05:53:13;99979.44;;;-14.55;65.76
69247;BME280;56358;56.328;43.992;2023-02-23T05:55:14;99961.34;;;-14.63;65.48
69247;BME280;56358;56.328;43.992;2023-02-23T05:57:14;99969.22;;;-14.51;65.73
69247;BME280;56358;56.328;43.992;2023-02-23T05:59:15;99963.09;;;-14.57;65.05
69247;BME280;56358;56.328;43.992;2023-02-23T06:01:18;99920.78;;;-14.78;65.02
69247;BME280;56358;56.328;43.992;2023-02-23T06:03:19;99969.06;;;-14.60;64.67
69247;BME280;56358;56.328;43.992;2023-02-23T06:05:20;99922.50;;;-14.78;64.63
69247;BME280;56358;56.328;43.992;2023-02-23T06:07:21;99963.16;;;-14.54;64.62
69247;BME280;56358;56.328;43.992;2023-02-23T06:09:21;99951.97;;;-14.55;64.53
69247;BME280;56358;56.328;43.992;2023-02-23T06:11:22;99977.84;;;-14.47;64.67
69247;BME280;56358;56.328;43.992;2023-02-23T06:13:23;99955.66;;;-14.39;64.54
69247;BME280;56358;56.328;43.992;2023-02-23T06:15:23;99955.66;;;-14.39;64.00
69247;BME280;56358;56.328;43.992;2023-02-23T06:17:24;99960.94;;;-14.31;63.56
69247;BME280;56358;56.328;43.992;2023-02-23T06:19:25;99965.34;;;-14.22;63.63
69247;BME280;56358;56.328;43.992;2023-02-23T06:21:26;99969.50;;;-14.30;63.15
69247;BME280;56358;56.328;43.992;2023-02-23T06:23:27;99976.41;;;-14.29;63.36
69247;BME280;56358;56.328;43.992;2023-02-23T06:25:29;99956.50;;;-14.40;63.10
69247;BME280;56358;56.328;43.992;2023-02-23T06:27:30;99963.19;;;-14.51;63.00
69247;BME280;56358;56.328;43.992;2023-02-23T06:29:30;99978.78;;;-14.43;62.76
69247;BME280;56358;56.328;43.992;2023-02-23T06:31:31;99974.34;;;-14.52;63.46
69247;BME280;56358;56.328;43.992;2023-02-23T06:33:31;99982.84;;;-14.56;62.94
69247;BME280;56358;56.328;43.992;2023-02-23T06:35:33;99972.53;;;-14.59;63.11
69247;BME280;56358;56.328;43.992;2023-02-23T06:37:34;99988.13;;;-14.50;63.25
69247;BME280;56358;56.328;43.992;2023-02-23T06:39:35;99982.97;;;-14.48;63.03
69247;BME280;56358;56.328;43.992;2023-02-23T06:41:36;99983.03;;;-14.44;63.09
69247;BME280;56358;56.328;43.992;2023-02-23T06:43:36;99976.94;;;-14.51;62.63
69247;BME280;56358;56.328;43.992;2023-02-23T06:45:37;99975.31;;;-14.44;63.27
69247;BME280;56358;56.328;43.992;2023-02-23T06:47:39;99989.19;;;-14.36;63.45
69247;BME280;56358;56.328;43.992;2023-02-23T06:49:40;99985.91;;;-14.24;62.97
69247;BME280;56358;56.328;43.992;2023-02-23T06:51:40;99900.44;;;-14.59;62.59
69247;BME280;56358;56.328;43.992;2023-02-23T06:53:41;99988.72;;;-14.10;62.36
69247;BME280;56358;56.328;43.992;2023-02-23T06:55:42;99989.53;;;-14.11;62.36
69247;BME280;56358;56.328;43.992;2023-02-23T06:57:42;99987.00;;;-14.08;61.86
69247;BME280;56358;56.328;43.992;2023-02-23T06:59:43;99987.81;;;-14.10;62.23
69247;BME280;56358;56.328;43.992;2023-02-23T07:01:44;99998.25;;;-14.01;61.98
69247;BME280;56358;56.328;43.992;2023-02-23T07:03:45;99998.41;;;-13.90;61.74
69247;BME280;56358;56.328;43.992;2023-02-23T07:05:46;99960.00;;;-14.35;61.06
69247;BME280;56358;56.328;43.992;2023-02-23T07:07:47;99996.59;;;-13.99;61.50
69247;BME280;56358;56.328;43.992;2023-02-23T07:09:47;99987.00;;;-14.06;62.09
69247;BME280;56358;56.328;43.992;2023-02-23T07:11:48;99997.69;;;-13.80;61.34
69247;BME280;56358;56.328;43.992;2023-02-23T07:13:49;99993.34;;;-13.84;60.90
69247;BME280;56358;56.328;43.992;2023-02-23T07:15:49;99992.53;;;-13.80;61.15
69247;BME280;56358;56.328;43.992;2023-02-23T07:17:50;99991.75;;;-13.74;61.34
69247;BME280;56358;56.328;43.992;2023-02-23T07:19:52;100003.94;;;-13.59;60.42
69247;BME280;56358;56.328;43.992;2023-02-23T07:21:53;99995.34;;;-13.63;60.40
69247;BME280;56358;56.328;43.992;2023-02-23T07:23:53;99999.69;;;-13.59;60.29
69247;BME280;56358;56.328;43.992;2023-02-23T07:25:54;99998.06;;;-13.51;60.32
69247;BME280;56358;56.328;43.992;2023-02-23T07:27:55;99997.13;;;-13.56;60.13
69247;BME280;56358;56.328;43.992;2023-02-23T07:29:58;100005.69;;;-13.58;60.14
69247;BME280;56358;56.328;43.992;2023-02-23T07:31:58;100000.53;;;-13.58;60.51
69247;BME280;56358;56.328;43.992;2023-02-23T07:33:59;100010.97;;;-13.49;60.01
69247;BME280;56358;56.328;43.992;2023-02-23T07:36:01;100009.22;;;-13.50;60.32
69247;BME280;56358;56.328;43.992;2023-02-23T07:38:02;100014.19;;;-13.67;59.56
69247;BME280;56358;56.328;43.992;2023-02-23T07:40:04;100006.38;;;-13.72;60.07
69247;BME280;56358;56.328;43.992;2023-02-23T07:42:04;100006.28;;;-13.79;59.82
69247;BME280;56358;56.328;43.992;2023-02-23T07:44:05;100004.59;;;-13.77;60.75
69247;BME280;56358;56.328;43.992;2023-02-23T07:46:06;100017.34;;;-13.87;60.15
69247;BME280;56358;56.328;43.992;2023-02-23T07:48:08;100008.50;;;-14.06;60.20
69247;BME280;56358;56.328;43.992;2023-02-23T07:50:11;99994.69;;;-14.12;60.56
69247;BME280;56358;56.328;43.992;2023-02-23T07:52:16;100010.31;;;-14.00;61.31
69247;BME280;56358;56.328;43.992;2023-02-23T07:54:17;100012.09;;;-13.93;61.04
69247;BME280;56358;56.328;43.992;2023-02-23T07:56:18;100020.03;;;-13.80;61.05
69247;BME280;56358;56.328;43.992;2023-02-23T07:58:19;100014.91;;;-13.76;61.23
69247;BME280;56358;56.328;43.992;2023-02-23T08:00:19;100028.03;;;-13.60;61.16
69247;BME280;56358;56.328;43.992;2023-02-23T08:02:20;100019.53;;;-13.52;60.59
69247;BME280;56358;56.328;43.992;2023-02-23T08:04:21;99971.13;;;-13.73;60.47
69247;BME280;56358;56.328;43.992;2023-02-23T08:06:22;99966.91;;;-13.66;60.31
69247;BME280;56358;56.328;43.992;2023-02-23T08:08:23;100012.84;;;-13.36;60.17
69247;BME280;56358;56.328;43.992;2023-02-23T08:10:24;100011.13;;;-13.32;60.38
69247;BME280;56358;56.328;43.992;2023-02-23T08:12:25;100018.97;;;-13.23;60.11
69247;BME280;56358;56.328;43.992;2023-02-23T08:14:26;100010.34;;;-13.25;60.24
69247;BME280;56358;56.328;43.992;2023-02-23T08:16:31;99955.03;;;-13.56;59.95
69247;BME280;56358;56.328;43.992;2023-02-23T08:18:32;100010.47;;;-13.14;60.02
69247;BME280;56358;56.328;43.992;2023-02-23T08:20:33;100017.47;;;-13.04;59.91
69247;BME280;56358;56.328;43.992;2023-02-23T08:22:33;99999.41;;;-13.02;59.96
69247;BME280;56358;56.328;43.992;2023-02-23T08:24:34;100006.38;;;-12.93;59.59
69247;BME280;56358;56.328;43.992;2023-02-23T08:26:36;100013.25;;;-12.94;58.91
69247;BME280;56358;56.328;43.992;2023-02-23T08:28:39;100014.00;;;-13.06;59.19
69247;BME280;56358;56.328;43.992;2023-02-23T08:30:44;99981.88;;;-13.39;59.40
69247;BME280;56358;56.328;43.992;2023-02-23T08:32:45;100008.59;;;-13.27;59.65
69247;BME280;56358;56.328;43.992;2023-02-23T08:34:45;99997.38;;;-13.36;59.40
69247;BME280;56358;56.328;43.992;2023-02-23T08:36:46;100019.88;;;-13.19;59.61
69247;BME280;56358;56.328;43.992;2023-02-23T08:38:47;100014.69;;;-13.21;58.96
69247;BME280;56358;56.328;43.992;2023-02-23T08:40:48;100016.44;;;-13.17;59.14
69247;BME280;56358;56.328;43.992;2023-02-23T08:42:48;100030.34;;;-13.04;58.90
69247;BME280;56358;56.328;43.992;2023-02-23T08:44:51;100037.38;;;-12.92;59.46
69247;BME280;56358;56.328;43.992;2023-02-23T08:46:52;100023.66;;;-12.83;58.97
69247;BME280;56358;56.328;43.992;2023-02-23T08:48:55;99989.28;;;-12.82;58.11
69247;BME280;56358;56.328;43.992;2023-02-23T08:50:57;100025.56;;;-12.67;57.81
69247;BME280;56358;56.328;43.992;2023-02-23T08:52:58;100033.50;;;-12.45;57.82
69247;BME280;56358;56.328;43.992;2023-02-23T08:54:58;100038.75;;;-12.31;57.41
69247;BME280;56358;56.328;43.992;2023-02-23T08:56:59;100038.81;;;-12.28;57.12
69247;BME280;56358;56.328;43.992;2023-02-23T08:59:00;100027.66;;;-12.22;56.99
69247;BME280;56358;56.328;43.992;2023-02-23T09:01:01;100036.22;;;-12.26;56.87
69247;BME280;56358;56.328;43.992;2023-02-23T09:03:03;100032.81;;;-12.24;57.52
69247;BME280;56358;56.328;43.992;2023-02-23T09:05:05;100026.81;;;-12.21;57.35
69247;BME280;56358;56.328;43.992;2023-02-23T09:07:06;100037.22;;;-12.06;56.99
69247;BME280;56358;56.328;43.992;2023-02-23T09:09:07;100025.16;;;-12.08;56.57
69247;BME280;56358;56.328;43.992;2023-02-23T09:11:07;100044.09;;;-12.13;56.19
69247;BME280;56358;56.328;43.992;2023-02-23T09:13:09;100023.47;;;-12.03;56.38
69247;BME280;56358;56.328;43.992;2023-02-23T09:15:10;100029.50;;;-12.03;56.13
69247;BME280;56358;56.328;43.992;2023-02-23T09:17:11;99998.38;;;-12.18;56.26
69247;BME280;56358;56.328;43.992;2023-02-23T09:19:13;99915.53;;;-12.46;55.70
69247;BME280;56358;56.328;43.992;2023-02-23T09:21:16;100038.25;;;-11.76;55.43
69247;BME280;56358;56.328;43.992;2023-02-23T09:23:18;100038.22;;;-11.79;55.26
69247;BME280;56358;56.328;43.992;2023-02-23T09:25:19;100021.75;;;-11.93;55.76
69247;BME280;56358;56.328;43.992;2023-02-23T09:27:21;100029.56;;;-11.92;55.76
69247;BME280;56358;56.328;43.992;2023-02-23T09:29:22;100034.94;;;-11.50;55.80
69247;BME280;56358;56.328;43.992;2023-02-23T09:31:23;100045.38;;;-11.25;54.74
69247;BME280;56358;56.328;43.992;2023-02-23T09:33:23;99989.34;;;-11.11;53.90
69247;BME280;56358;56.328;43.992;2023-02-23T09:35:25;99977.34;;;-10.87;53.18
69247;BME280;56358;56.328;43.992;2023-02-23T09:37:26;100031.75;;;-10.50;52.39
69247;BME280;56358;56.328;43.992;2023-02-23T09:39:27;100020.53;;;-10.65;52.68
69247;BME280;56358;56.328;43.992;2023-02-23T09:43:46;100033.47;;;-10.37;52.34
69247;BME280;56358;56.328;43.992;2023-02-23T09:45:54;100034.31;;;-10.22;52.04
69247;BME280;56358;56.328;43.992;2023-02-23T09:48:39;100034.34;;;-10.44;52.53
69247;BME280;56358;56.328;43.992;2023-02-23T09:50:21;100031.72;;;-10.61;52.51
69247;BME280;56358;56.328;43.992;2023-02-23T09:52:37;100023.09;;;-10.72;53.24
69247;BME280;56358;56.328;43.992;2023-02-23T09:54:39;100019.63;;;-10.77;53.64
69247;BME280;56358;56.328;43.992;2023-02-23T09:56:46;100024.78;;;-10.93;54.00
69247;BME280;56358;56.328;43.992;2023-02-23T09:58:47;100028.28;;;-10.83;55.16
69247;BME280;56358;56.328;43.992;2023-02-23T10:00:55;100017.91;;;-10.75;54.68
69247;BME280;56358;56.328;43.992;2023-02-23T10:03:20;100027.41;;;-10.62;54.19
69247;BME280;56358;56.328;43.992;2023-02-23T10:05:25;100002.38;;;-10.83;54.14
69247;BME280;56358;56.328;43.992;2023-02-23T10:07:46;100039.50;;;-10.75;54.86
69247;BME280;56358;56.328;43.992;2023-02-23T10:10:20;99985.03;;;-11.18;55.34
69247;BME280;56358;56.328;43.992;2023-02-23T10:17:33;100014.34;;;-11.25;56.54
69247;BME280;56358;56.328;43.992;2023-02-23T10:20:23;100047.94;;;-11.38;57.29
69247;BME280;56358;56.328;43.992;2023-02-23T10:22:14;100041.78;;;-11.63;58.58
69247;BME280;56358;56.328;43.992;2023-02-23T10:24:27;100049.53;;;-11.63;59.10
69247;BME280;56358;56.328;43.992;2023-02-23T10:26:40;100048.63;;;-11.71;59.18
69247;BME280;56358;56.328;43.992;2023-02-23T10:28:43;100033.06;;;-11.84;59.67
69247;BME280;56358;56.328;43.992;2023-02-23T10:30:44;100022.66;;;-11.90;59.82
69247;BME280;56358;56.328;43.992;2023-02-23T10:34:54;100038.22;;;-11.81;60.26
69247;BME280;56358;56.328;43.992;2023-02-23T10:37:00;100007.13;;;-11.96;60.20
69247;BME280;56358;56.328;43.992;2023-02-23T10:39:06;100035.75;;;-11.64;60.03
69247;BME280;56358;56.328;43.992;2023-02-23T10:41:07;99921.72;;;-12.24;59.82
69247;BME280;56358;56.328;43.992;2023-02-23T10:43:10;100032.38;;;-11.47;59.69
69247;BME280;56358;56.328;43.992;2023-02-23T10:45:33;99992.66;;;-11.54;59.57
69247;BME280;56358;56.328;43.992;2023-02-23T10:47:35;100007.53;;;-10.88;58.80
69247;BME280;56358;56.328;43.992;2023-02-23T10:49:51;100033.47;;;-10.14;57.12
69247;BME280;56358;56.328;43.992;2023-02-23T10:51:52;100033.41;;;-9.97;56.19
69247;BME280;56358;56.328;43.992;2023-02-23T10:56:43;100034.88;;;-9.07;55.02
69247;BME280;56358;56.328;43.992;2023-02-23T10:58:48;100025.31;;;-8.98;53.88
69247;BME280;56358;56.328;43.992;2023-02-23T11:00:50;100035.50;;;-8.62;53.92
69247;BME280;56358;56.328;43.992;2023-02-23T11:02:52;100026.44;;;-8.16;52.89
69247;BME280;56358;56.328;43.992;2023-02-23T11:04:56;99995.00;;;-7.92;51.43
69247;BME280;56358;56.328;43.992;2023-02-23T11:07:24;100025.44;;;-7.22;50.84
69247;BME280;56358;56.328;43.992;2023-02-23T11:09:28;100025.28;;;-6.47;49.03
69247;BME280;56358;56.328;43.992;2023-02-23T11:11:29;100021.75;;;-5.92;47.60
69247;BME280;56358;56.328;43.992;2023-02-23T11:13:44;100030.38;;;-5.40;46.14
69247;BME280;56358;56.328;43.992;2023-02-23T11:15:45;100024.53;;;-5.09;46.20
69247;BME280;56358;56.328;43.992;2023-02-23T11:17:57;100030.25;;;-4.91;44.98
69247;BME280;56358;56.328;43.992;2023-02-23T11:20:09;99961.53;;;-4.98;44.27
69247;BME280;56358;56.328;43.992;2023-02-23T11:22:19;99984.00;;;-4.50;43.60
69247;BME280;56358;56.328;43.992;2023-02-23T11:24:27;99928.13;;;-4.85;43.24
69247;BME280;56358;56.328;43.992;2023-02-23T11:26:38;100024.19;;;-4.18;43.30
69247;BME280;56358;56.328;43.992;2023-02-23T11:28:41;100018.94;;;-4.16;42.84
69247;BME280;56358;56.328;43.992;2023-02-23T11:30:42;100021.22;;;-4.02;42.52
69247;BME280;56358;56.328;43.992;2023-02-23T11:32:43;100026.31;;;-4.32;43.04